sensor_id;sensor_type;location;lat;lon;timestamp;temperature;humidity
61672;DHT22;47572;0.00000000;0.00000000;2022-10-28T00:00:21;19.70;76.20
61672;DHT22;47572;0.00000000;0.00000000;2022-10-28T00:02:47;19.70;76.20
61672;DHT22;47572;0.00000000;0.00000000;2022-10-28T00:05:13;19.70;76.10
61672;DHT22;47572;0.00000000;0.00000000;2022-10-28T00:07:38;19.70;76.10
61672;DHT22;47572;0.00000000;0.00000000;2022-10-28T00:10:04;19.70;76.00
61672;DHT22;47572;0.00000000;0.00000000;2022-10-28T00:12:33;19.70;75.90
61672;DHT22;47572;0.00000000;0.00000000;2022-10-28T00:14:59;19.70;76.00
61672;DHT22;47572;0.00000000;0.00000000;2022-10-28T00:17:24;19.70;76.00
61672;DHT22;47572;0.00000000;0.00000000;2022-10-28T00:19:50;19.70;76.00
61672;DHT22;47572;0.00000000;0.00000000;2022-10-28T00:22:15;19.70;76.00
61672;DHT22;47572;0.00000000;0.00000000;2022-10-28T00:24:42;19.70;76.00
61672;DHT22;47572;0.00000000;0.00000000;2022-10-28T00:27:07;19.70;76.00
61672;DHT22;47572;0.00000000;0.00000000;2022-10-28T00:29:33;19.70;76.00
61672;DHT22;47572;0.00000000;0.00000000;2022-10-28T00:31:59;19.70;76.00
61672;DHT22;47572;0.00000000;0.00000000;2022-10-28T00:34:24;19.70;76.00
61672;DHT22;47572;0.00000000;0.00000000;2022-10-28T00:36:50;19.70;76.00
61672;DHT22;47572;0.00000000;0.00000000;2022-10-28T00:39:16;19.70;76.00
61672;DHT22;47572;0.00000000;0.00000000;2022-10-28T00:41:44;19.70;76.00
61672;DHT22;47572;0.00000000;0.00000000;2022-10-28T00:46:54;19.60;75.90
61672;DHT22;47572;0.00000000;0.00000000;2022-10-28T00:49:24;19.60;75.90
61672;DHT22;47572;0.00000000;0.00000000;2022-10-28T00:51:52;19.60;75.90
61672;DHT22;47572;0.00000000;0.00000000;2022-10-28T00:54:18;19.70;76.00
61672;DHT22;47572;0.00000000;0.00000000;2022-10-28T00:56:45;19.60;75.90
61672;DHT22;47572;0.00000000;0.00000000;2022-10-28T00:59:20;19.60;75.90
61672;DHT22;47572;0.00000000;0.00000000;2022-10-28T01:01:48;19.60;75.90
61672;DHT22;47572;0.00000000;0.00000000;2022-10-28T01:04:13;19.60;75.90
61672;DHT22;47572;0.00000000;0.00000000;2022-10-28T01:06:39;19.60;75.90
61672;DHT22;47572;0.00000000;0.00000000;2022-10-28T01:09:06;19.60;75.90
61672;DHT22;47572;0.00000000;0.00000000;2022-10-28T01:11:39;19.60;76.00
61672;DHT22;47572;0.00000000;0.00000000;2022-10-28T01:14:31;19.60;75.90
61672;DHT22;47572;0.00000000;0.00000000;2022-10-28T01:22:15;19.60;76.00
61672;DHT22;47572;0.00000000;0.00000000;2022-10-28T01:24:53;19.60;76.00
61672;DHT22;47572;0.00000000;0.00000000;2022-10-28T01:30:03;19.60;75.90
61672;DHT22;47572;0.00000000;0.00000000;2022-10-28T01:37:39;19.60;75.90
61672;DHT22;47572;0.00000000;0.00000000;2022-10-28T01:40:14;19.60;75.90
61672;DHT22;47572;0.00000000;0.00000000;2022-10-28T01:42:43;19.60;75.90
61672;DHT22;47572;0.00000000;0.00000000;2022-10-28T01:50:13;19.60;75.90
61672;DHT22;47572;0.00000000;0.00000000;2022-10-28T01:52:40;19.50;75.90
61672;DHT22;47572;0.00000000;0.00000000;2022-10-28T01:55:10;19.50;75.80
61672;DHT22;47572;0.00000000;0.00000000;2022-10-28T01:57:38;19.60;75.90
61672;DHT22;47572;0.00000000;0.00000000;2022-10-28T02:00:06;19.60;75.90
61672;DHT22;47572;0.00000000;0.00000000;2022-10-28T02:02:33;19.50;75.90
61672;DHT22;47572;0.00000000;0.00000000;2022-10-28T02:07:44;19.50;75.80
61672;DHT22;47572;0.00000000;0.00000000;2022-10-28T02:10:13;19.50;75.80
61672;DHT22;47572;0.00000000;0.00000000;2022-10-28T02:12:40;19.50;75.80
61672;DHT22;47572;0.00000000;0.00000000;2022-10-28T02:22:39;19.50;75.80
61672;DHT22;47572;0.00000000;0.00000000;2022-10-28T02:25:08;19.50;75.80
61672;DHT22;47572;0.00000000;0.00000000;2022-10-28T02:30:09;19.50;75.70
61672;DHT22;47572;0.00000000;0.00000000;2022-10-28T02:32:37;19.50;75.70
61672;DHT22;47572;0.00000000;0.00000000;2022-10-28T02:35:06;19.50;75.80
61672;DHT22;47572;0.00000000;0.00000000;2022-10-28T02:37:33;19.50;75.70
61672;DHT22;47572;0.00000000;0.00000000;2022-10-28T02:40:01;19.50;75.70
61672;DHT22;47572;0.00000000;0.00000000;2022-10-28T02:42:35;19.50;75.70
61672;DHT22;47572;0.00000000;0.00000000;2022-10-28T02:45:04;19.50;75.70
61672;DHT22;47572;0.00000000;0.00000000;2022-10-28T02:47:32;19.50;75.70
61672;DHT22;47572;0.00000000;0.00000000;2022-10-28T02:50:02;19.50;75.70
61672;DHT22;47572;0.00000000;0.00000000;2022-10-28T02:52:30;19.50;75.70
61672;DHT22;47572;0.00000000;0.00000000;2022-10-28T02:54:57;19.50;75.70
61672;DHT22;47572;0.00000000;0.00000000;2022-10-28T02:57:24;19.50;75.70
61672;DHT22;47572;0.00000000;0.00000000;2022-10-28T02:59:52;19.50;75.60
61672;DHT22;47572;0.00000000;0.00000000;2022-10-28T03:02:18;19.40;75.50
61672;DHT22;47572;0.00000000;0.00000000;2022-10-28T03:04:44;19.50;75.60
61672;DHT22;47572;0.00000000;0.00000000;2022-10-28T03:07:10;19.40;75.60
61672;DHT22;47572;0.00000000;0.00000000;2022-10-28T03:09:36;19.40;75.50
61672;DHT22;47572;0.00000000;0.00000000;2022-10-28T03:12:01;19.50;75.60
61672;DHT22;47572;0.00000000;0.00000000;2022-10-28T03:14:27;19.40;75.50
61672;DHT22;47572;0.00000000;0.00000000;2022-10-28T03:16:53;19.40;75.50
61672;DHT22;47572;0.00000000;0.00000000;2022-10-28T03:19:18;19.40;76.40
61672;DHT22;47572;0.00000000;0.00000000;2022-10-28T03:21:44;19.40;75.50
61672;DHT22;47572;0.00000000;0.00000000;2022-10-28T03:24:10;19.40;75.50
61672;DHT22;47572;0.00000000;0.00000000;2022-10-28T03:26:35;19.40;75.50
61672;DHT22;47572;0.00000000;0.00000000;2022-10-28T03:29:01;19.40;75.50
61672;DHT22;47572;0.00000000;0.00000000;2022-10-28T03:31:27;19.40;75.50
61672;DHT22;47572;0.00000000;0.00000000;2022-10-28T03:33:52;19.40;75.50
61672;DHT22;47572;0.00000000;0.00000000;2022-10-28T03:36:18;19.40;75.50
61672;DHT22;47572;0.00000000;0.00000000;2022-10-28T03:38:44;19.40;75.50
61672;DHT22;47572;0.00000000;0.00000000;2022-10-28T03:41:09;19.40;75.40
61672;DHT22;47572;0.00000000;0.00000000;2022-10-28T03:43:35;19.40;75.40
61672;DHT22;47572;0.00000000;0.00000000;2022-10-28T03:46:01;19.40;75.50
61672;DHT22;47572;0.00000000;0.00000000;2022-10-28T03:48:26;19.40;75.50
61672;DHT22;47572;0.00000000;0.00000000;2022-10-28T03:50:52;19.40;75.50
61672;DHT22;47572;0.00000000;0.00000000;2022-10-28T03:53:18;19.40;75.40
61672;DHT22;47572;0.00000000;0.00000000;2022-10-28T03:55:50;19.40;75.40
61672;DHT22;47572;0.00000000;0.00000000;2022-10-28T03:58:15;19.40;75.40
61672;DHT22;47572;0.00000000;0.00000000;2022-10-28T04:00:41;19.30;75.40
61672;DHT22;47572;0.00000000;0.00000000;2022-10-28T04:03:07;19.40;75.50
61672;DHT22;47572;0.00000000;0.00000000;2022-10-28T04:05:33;19.30;75.40
61672;DHT22;47572;0.00000000;0.00000000;2022-10-28T04:07:59;19.40;75.40
61672;DHT22;47572;0.00000000;0.00000000;2022-10-28T04:10:25;19.30;75.40
61672;DHT22;47572;0.00000000;0.00000000;2022-10-28T04:12:50;19.30;75.40
61672;DHT22;47572;0.00000000;0.00000000;2022-10-28T04:15:16;19.30;75.40
61672;DHT22;47572;0.00000000;0.00000000;2022-10-28T04:17:42;19.30;75.40
61672;DHT22;47572;0.00000000;0.00000000;2022-10-28T04:20:08;19.30;75.40
61672;DHT22;47572;0.00000000;0.00000000;2022-10-28T04:22:34;19.30;75.40
61672;DHT22;47572;0.00000000;0.00000000;2022-10-28T04:25:00;19.30;75.40
61672;DHT22;47572;0.00000000;0.00000000;2022-10-28T04:27:26;19.30;75.40
61672;DHT22;47572;0.00000000;0.00000000;2022-10-28T04:29:51;19.30;75.40
61672;DHT22;47572;0.00000000;0.00000000;2022-10-28T04:32:17;19.30;75.40
61672;DHT22;47572;0.00000000;0.00000000;2022-10-28T04:34:43;19.30;75.40
61672;DHT22;47572;0.00000000;0.00000000;2022-10-28T04:37:08;19.30;75.40
61672;DHT22;47572;0.00000000;0.00000000;2022-10-28T04:39:34;19.30;75.40
61672;DHT22;47572;0.00000000;0.00000000;2022-10-28T04:42:00;19.30;75.40
61672;DHT22;47572;0.00000000;0.00000000;2022-10-28T04:44:25;19.30;75.40
61672;DHT22;47572;0.00000000;0.00000000;2022-10-28T04:46:51;19.30;75.40
61672;DHT22;47572;0.00000000;0.00000000;2022-10-28T04:49:17;19.30;75.40
61672;DHT22;47572;0.00000000;0.00000000;2022-10-28T04:51:42;19.30;76.20
61672;DHT22;47572;0.00000000;0.00000000;2022-10-28T04:54:08;19.30;75.40
61672;DHT22;47572;0.00000000;0.00000000;2022-10-28T04:56:33;19.30;75.40
61672;DHT22;47572;0.00000000;0.00000000;2022-10-28T04:58:59;19.30;75.40
61672;DHT22;47572;0.00000000;0.00000000;2022-10-28T05:01:25;19.30;75.40
61672;DHT22;47572;0.00000000;0.00000000;2022-10-28T05:03:50;19.30;75.40
61672;DHT22;47572;0.00000000;0.00000000;2022-10-28T05:06:17;19.30;75.40
61672;DHT22;47572;0.00000000;0.00000000;2022-10-28T05:08:43;19.30;75.40
61672;DHT22;47572;0.00000000;0.00000000;2022-10-28T05:11:08;19.30;75.40
61672;DHT22;47572;0.00000000;0.00000000;2022-10-28T05:13:34;19.30;75.40
61672;DHT22;47572;0.00000000;0.00000000;2022-10-28T05:16:00;19.30;75.40
61672;DHT22;47572;0.00000000;0.00000000;2022-10-28T05:18:25;19.30;75.30
61672;DHT22;47572;0.00000000;0.00000000;2022-10-28T05:20:51;19.30;75.30
61672;DHT22;47572;0.00000000;0.00000000;2022-10-28T05:23:22;19.30;75.30
61672;DHT22;47572;0.00000000;0.00000000;2022-10-28T05:25:48;19.30;75.30
61672;DHT22;47572;0.00000000;0.00000000;2022-10-28T05:28:14;19.30;75.30
61672;DHT22;47572;0.00000000;0.00000000;2022-10-28T05:30:39;19.30;75.20
61672;DHT22;47572;0.00000000;0.00000000;2022-10-28T05:33:05;19.30;75.30
61672;DHT22;47572;0.00000000;0.00000000;2022-10-28T05:35:31;19.30;75.20
61672;DHT22;47572;0.00000000;0.00000000;2022-10-28T05:37:57;19.30;75.20
61672;DHT22;47572;0.00000000;0.00000000;2022-10-28T05:40:23;19.20;75.20
61672;DHT22;47572;0.00000000;0.00000000;2022-10-28T05:42:48;19.20;75.10
61672;DHT22;47572;0.00000000;0.00000000;2022-10-28T05:45:14;19.20;75.20
61672;DHT22;47572;0.00000000;0.00000000;2022-10-28T05:47:43;19.20;75.90
61672;DHT22;47572;0.00000000;0.00000000;2022-10-28T05:50:10;19.30;75.20
61672;DHT22;47572;0.00000000;0.00000000;2022-10-28T05:52:36;19.20;75.10
61672;DHT22;47572;0.00000000;0.00000000;2022-10-28T05:55:01;19.20;75.20
61672;DHT22;47572;0.00000000;0.00000000;2022-10-28T05:57:27;19.20;75.10
61672;DHT22;47572;0.00000000;0.00000000;2022-10-28T05:59:53;19.20;75.10
61672;DHT22;47572;0.00000000;0.00000000;2022-10-28T06:02:18;19.20;75.10
61672;DHT22;47572;0.00000000;0.00000000;2022-10-28T06:04:44;19.20;75.10
61672;DHT22;47572;0.00000000;0.00000000;2022-10-28T06:07:10;19.20;75.10
61672;DHT22;47572;0.00000000;0.00000000;2022-10-28T06:09:36;19.20;75.10
61672;DHT22;47572;0.00000000;0.00000000;2022-10-28T06:12:02;19.20;75.10
61672;DHT22;47572;0.00000000;0.00000000;2022-10-28T06:14:28;19.20;75.10
61672;DHT22;47572;0.00000000;0.00000000;2022-10-28T06:16:53;19.20;75.10
61672;DHT22;47572;0.00000000;0.00000000;2022-10-28T06:19:19;19.20;75.10
61672;DHT22;47572;0.00000000;0.00000000;2022-10-28T06:21:44;19.20;75.10
61672;DHT22;47572;0.00000000;0.00000000;2022-10-28T06:24:10;19.20;75.20
61672;DHT22;47572;0.00000000;0.00000000;2022-10-28T06:26:36;19.20;75.10
61672;DHT22;47572;0.00000000;0.00000000;2022-10-28T06:29:02;19.20;75.10
61672;DHT22;47572;0.00000000;0.00000000;2022-10-28T06:31:27;19.20;75.10
61672;DHT22;47572;0.00000000;0.00000000;2022-10-28T06:33:53;19.20;75.10
61672;DHT22;47572;0.00000000;0.00000000;2022-10-28T06:36:19;19.20;75.10
61672;DHT22;47572;0.00000000;0.00000000;2022-10-28T06:38:44;19.20;75.10
61672;DHT22;47572;0.00000000;0.00000000;2022-10-28T06:41:10;19.20;75.10
61672;DHT22;47572;0.00000000;0.00000000;2022-10-28T06:43:36;19.20;75.00
61672;DHT22;47572;0.00000000;0.00000000;2022-10-28T06:46:02;19.10;75.00
61672;DHT22;47572;0.00000000;0.00000000;2022-10-28T06:48:29;19.20;75.00
61672;DHT22;47572;0.00000000;0.00000000;2022-10-28T06:50:55;19.10;75.00
61672;DHT22;47572;0.00000000;0.00000000;2022-10-28T06:53:22;19.10;75.00
61672;DHT22;47572;0.00000000;0.00000000;2022-10-28T06:55:54;19.20;75.10
61672;DHT22;47572;0.00000000;0.00000000;2022-10-28T06:58:20;19.10;75.00
61672;DHT22;47572;0.00000000;0.00000000;2022-10-28T07:00:46;19.10;74.70
61672;DHT22;47572;0.00000000;0.00000000;2022-10-28T07:03:12;19.10;74.60
61672;DHT22;47572;0.00000000;0.00000000;2022-10-28T07:05:37;19.10;74.70
61672;DHT22;47572;0.00000000;0.00000000;2022-10-28T07:08:04;19.10;74.60
61672;DHT22;47572;0.00000000;0.00000000;2022-10-28T07:10:29;19.10;74.90
61672;DHT22;47572;0.00000000;0.00000000;2022-10-28T07:12:55;19.10;75.30
61672;DHT22;47572;0.00000000;0.00000000;2022-10-28T07:15:21;19.10;75.20
61672;DHT22;47572;0.00000000;0.00000000;2022-10-28T07:17:53;19.10;75.20
61672;DHT22;47572;0.00000000;0.00000000;2022-10-28T07:20:20;19.10;75.10
61672;DHT22;47572;0.00000000;0.00000000;2022-10-28T07:22:45;19.10;75.20
61672;DHT22;47572;0.00000000;0.00000000;2022-10-28T07:25:11;19.10;75.30
61672;DHT22;47572;0.00000000;0.00000000;2022-10-28T07:27:37;19.10;75.30
61672;DHT22;47572;0.00000000;0.00000000;2022-10-28T07:30:02;19.10;75.30
61672;DHT22;47572;0.00000000;0.00000000;2022-10-28T07:32:31;19.10;75.30
61672;DHT22;47572;0.00000000;0.00000000;2022-10-28T07:34:57;19.10;75.30
61672;DHT22;47572;0.00000000;0.00000000;2022-10-28T07:37:23;19.10;75.50
61672;DHT22;47572;0.00000000;0.00000000;2022-10-28T07:39:49;19.10;75.40
61672;DHT22;47572;0.00000000;0.00000000;2022-10-28T07:42:14;19.10;75.50
61672;DHT22;47572;0.00000000;0.00000000;2022-10-28T07:44:40;19.10;75.50
61672;DHT22;47572;0.00000000;0.00000000;2022-10-28T07:47:06;19.10;75.60
61672;DHT22;47572;0.00000000;0.00000000;2022-10-28T07:49:31;19.10;75.60
61672;DHT22;47572;0.00000000;0.00000000;2022-10-28T07:51:57;19.10;75.60
61672;DHT22;47572;0.00000000;0.00000000;2022-10-28T07:54:23;19.10;75.70
61672;DHT22;47572;0.00000000;0.00000000;2022-10-28T07:56:49;19.10;75.90
61672;DHT22;47572;0.00000000;0.00000000;2022-10-28T07:59:14;19.10;75.80
61672;DHT22;47572;0.00000000;0.00000000;2022-10-28T08:01:40;19.10;76.10
61672;DHT22;47572;0.00000000;0.00000000;2022-10-28T08:04:06;19.10;75.90
61672;DHT22;47572;0.00000000;0.00000000;2022-10-28T08:06:32;19.20;76.00
61672;DHT22;47572;0.00000000;0.00000000;2022-10-28T08:08:59;19.20;75.90
61672;DHT22;47572;0.00000000;0.00000000;2022-10-28T08:11:25;19.20;75.90
61672;DHT22;47572;0.00000000;0.00000000;2022-10-28T08:13:51;19.20;76.00
61672;DHT22;47572;0.00000000;0.00000000;2022-10-28T08:16:17;19.20;76.00
61672;DHT22;47572;0.00000000;0.00000000;2022-10-28T08:18:43;19.20;76.10
61672;DHT22;47572;0.00000000;0.00000000;2022-10-28T08:21:10;19.20;76.10
61672;DHT22;47572;0.00000000;0.00000000;2022-10-28T08:23:36;19.20;76.20
61672;DHT22;47572;0.00000000;0.00000000;2022-10-28T08:26:02;19.20;76.10
61672;DHT22;47572;0.00000000;0.00000000;2022-10-28T08:28:28;19.20;76.10
61672;DHT22;47572;0.00000000;0.00000000;2022-10-28T08:30:58;19.20;76.20
61672;DHT22;47572;0.00000000;0.00000000;2022-10-28T08:33:23;19.20;76.20
61672;DHT22;47572;0.00000000;0.00000000;2022-10-28T08:35:49;19.30;76.20
61672;DHT22;47572;0.00000000;0.00000000;2022-10-28T08:38:16;19.30;76.20
61672;DHT22;47572;0.00000000;0.00000000;2022-10-28T08:40:45;19.20;76.20
61672;DHT22;47572;0.00000000;0.00000000;2022-10-28T08:43:39;19.30;76.20
61672;DHT22;47572;0.00000000;0.00000000;2022-10-28T08:46:55;19.20;76.20
61672;DHT22;47572;0.00000000;0.00000000;2022-10-28T08:48:52;19.30;76.30
61672;DHT22;47572;0.00000000;0.00000000;2022-10-28T08:51:19;19.20;76.10
61672;DHT22;47572;0.00000000;0.00000000;2022-10-28T08:53:48;19.30;76.20
61672;DHT22;47572;0.00000000;0.00000000;2022-10-28T08:56:27;19.30;76.20
61672;DHT22;47572;0.00000000;0.00000000;2022-10-28T08:58:54;19.30;76.20
61672;DHT22;47572;0.00000000;0.00000000;2022-10-28T09:04:01;19.30;76.10
61672;DHT22;47572;0.00000000;0.00000000;2022-10-28T09:06:30;19.30;76.20
61672;DHT22;47572;0.00000000;0.00000000;2022-10-28T09:08:55;19.30;76.20
61672;DHT22;47572;0.00000000;0.00000000;2022-10-28T09:16:39;19.30;76.30
61672;DHT22;47572;0.00000000;0.00000000;2022-10-28T09:21:46;19.30;76.20
61672;DHT22;47572;0.00000000;0.00000000;2022-10-28T09:24:18;19.30;76.50
61672;DHT22;47572;0.00000000;0.00000000;2022-10-28T09:29:19;19.30;76.60
61672;DHT22;47572;0.00000000;0.00000000;2022-10-28T09:32:00;19.30;76.70
61672;DHT22;47572;0.00000000;0.00000000;2022-10-28T09:34:32;19.30;76.60
61672;DHT22;47572;0.00000000;0.00000000;2022-10-28T09:37:02;19.20;76.60
61672;DHT22;47572;0.00000000;0.00000000;2022-10-28T09:39:33;19.30;76.70
61672;DHT22;47572;0.00000000;0.00000000;2022-10-28T09:42:01;19.30;76.70
61672;DHT22;47572;0.00000000;0.00000000;2022-10-28T09:44:35;19.30;76.70
61672;DHT22;47572;0.00000000;0.00000000;2022-10-28T09:47:07;19.30;76.70
61672;DHT22;47572;0.00000000;0.00000000;2022-10-28T09:49:36;19.30;76.70
61672;DHT22;47572;0.00000000;0.00000000;2022-10-28T09:52:08;19.30;76.70
61672;DHT22;47572;0.00000000;0.00000000;2022-10-28T09:54:39;19.30;76.60
61672;DHT22;47572;0.00000000;0.00000000;2022-10-28T09:57:06;19.30;76.70
61672;DHT22;47572;0.00000000;0.00000000;2022-10-28T09:59:32;19.30;76.70
61672;DHT22;47572;0.00000000;0.00000000;2022-10-28T10:01:58;19.30;76.80
61672;DHT22;47572;0.00000000;0.00000000;2022-10-28T10:04:24;19.30;76.80
61672;DHT22;47572;0.00000000;0.00000000;2022-10-28T10:06:51;19.30;76.70
61672;DHT22;47572;0.00000000;0.00000000;2022-10-28T10:09:22;19.30;76.80
61672;DHT22;47572;0.00000000;0.00000000;2022-10-28T10:11:50;19.30;76.80
61672;DHT22;47572;0.00000000;0.00000000;2022-10-28T10:14:18;19.30;76.80
61672;DHT22;47572;0.00000000;0.00000000;2022-10-28T10:16:45;19.20;76.80
61672;DHT22;47572;0.00000000;0.00000000;2022-10-28T10:19:11;19.20;76.60
61672;DHT22;47572;0.00000000;0.00000000;2022-10-28T10:21:45;19.30;76.70
61672;DHT22;47572;0.00000000;0.00000000;2022-10-28T10:24:30;19.20;76.80
61672;DHT22;47572;0.00000000;0.00000000;2022-10-28T10:27:16;19.30;76.80
61672;DHT22;47572;0.00000000;0.00000000;2022-10-28T10:29:48;19.30;77.00
61672;DHT22;47572;0.00000000;0.00000000;2022-10-28T10:34:42;19.30;76.90
61672;DHT22;47572;0.00000000;0.00000000;2022-10-28T10:37:12;19.20;76.90
61672;DHT22;47572;0.00000000;0.00000000;2022-10-28T10:39:40;19.30;76.90
61672;DHT22;47572;0.00000000;0.00000000;2022-10-28T10:42:15;19.30;77.00
61672;DHT22;47572;0.00000000;0.00000000;2022-10-28T10:44:41;19.30;76.90
61672;DHT22;47572;0.00000000;0.00000000;2022-10-28T10:49:37;19.30;77.90
61672;DHT22;47572;0.00000000;0.00000000;2022-10-28T10:52:05;19.30;77.20
61672;DHT22;47572;0.00000000;0.00000000;2022-10-28T10:54:32;19.30;77.10
61672;DHT22;47572;0.00000000;0.00000000;2022-10-28T10:57:14;19.30;77.20
61672;DHT22;47572;0.00000000;0.00000000;2022-10-28T10:59:44;19.30;77.40
61672;DHT22;47572;0.00000000;0.00000000;2022-10-28T11:04:48;19.30;77.40
61672;DHT22;47572;0.00000000;0.00000000;2022-10-28T11:07:14;19.30;77.40
61672;DHT22;47572;0.00000000;0.00000000;2022-10-28T11:09:40;19.30;77.30
61672;DHT22;47572;0.00000000;0.00000000;2022-10-28T11:12:27;19.30;77.30
61672;DHT22;47572;0.00000000;0.00000000;2022-10-28T11:14:57;19.30;77.30
61672;DHT22;47572;0.00000000;0.00000000;2022-10-28T11:17:24;19.30;77.20
61672;DHT22;47572;0.00000000;0.00000000;2022-10-28T11:19:52;19.30;77.30
61672;DHT22;47572;0.00000000;0.00000000;2022-10-28T11:22:28;19.30;77.30
61672;DHT22;47572;0.00000000;0.00000000;2022-10-28T11:25:18;19.30;77.20
61672;DHT22;47572;0.00000000;0.00000000;2022-10-28T11:28:02;19.30;77.30
61672;DHT22;47572;0.00000000;0.00000000;2022-10-28T11:30:37;19.30;77.30
61672;DHT22;47572;0.00000000;0.00000000;2022-10-28T11:33:07;19.30;77.40
61672;DHT22;47572;0.00000000;0.00000000;2022-10-28T11:35:38;19.30;77.50
61672;DHT22;47572;0.00000000;0.00000000;2022-10-28T11:38:11;19.30;77.40
61672;DHT22;47572;0.00000000;0.00000000;2022-10-28T11:46:00;19.40;77.40
61672;DHT22;47572;0.00000000;0.00000000;2022-10-28T11:59:03;19.50;78.10
61672;DHT22;47572;0.00000000;0.00000000;2022-10-28T12:11:58;19.50;77.60
61672;DHT22;47572;0.00000000;0.00000000;2022-10-28T12:17:02;19.50;77.50
61672;DHT22;47572;0.00000000;0.00000000;2022-10-28T12:19:34;19.50;77.70
61672;DHT22;47572;0.00000000;0.00000000;2022-10-28T12:24:29;19.60;77.80
61672;DHT22;47572;0.00000000;0.00000000;2022-10-28T12:26:56;19.60;78.60
61672;DHT22;47572;0.00000000;0.00000000;2022-10-28T12:29:26;19.60;77.70
61672;DHT22;47572;0.00000000;0.00000000;2022-10-28T12:31:55;19.60;77.60
61672;DHT22;47572;0.00000000;0.00000000;2022-10-28T12:34:24;19.60;77.80
61672;DHT22;47572;0.00000000;0.00000000;2022-10-28T12:36:56;19.60;77.80
61672;DHT22;47572;0.00000000;0.00000000;2022-10-28T12:41:51;19.60;77.80
61672;DHT22;47572;0.00000000;0.00000000;2022-10-28T12:44:19;19.60;77.70
61672;DHT22;47572;0.00000000;0.00000000;2022-10-28T12:50:03;19.60;78.00
61672;DHT22;47572;0.00000000;0.00000000;2022-10-28T12:52:08;19.60;78.30
61672;DHT22;47572;0.00000000;0.00000000;2022-10-28T12:57:16;19.60;78.40
61672;DHT22;47572;0.00000000;0.00000000;2022-10-28T12:59:44;19.60;78.50
61672;DHT22;47572;0.00000000;0.00000000;2022-10-28T13:02:16;19.60;78.40
61672;DHT22;47572;0.00000000;0.00000000;2022-10-28T13:04:44;19.60;78.40
61672;DHT22;47572;0.00000000;0.00000000;2022-10-28T13:20:44;19.70;78.70
61672;DHT22;47572;0.00000000;0.00000000;2022-10-28T13:25:44;19.70;79.10
61672;DHT22;47572;0.00000000;0.00000000;2022-10-28T13:28:13;19.70;79.00
61672;DHT22;47572;0.00000000;0.00000000;2022-10-28T13:30:50;19.70;79.10
61672;DHT22;47572;0.00000000;0.00000000;2022-10-28T13:33:17;19.70;79.10
61672;DHT22;47572;0.00000000;0.00000000;2022-10-28T13:35:45;19.60;79.10
61672;DHT22;47572;0.00000000;0.00000000;2022-10-28T13:38:11;19.70;79.20
61672;DHT22;47572;0.00000000;0.00000000;2022-10-28T13:43:03;19.60;78.90
61672;DHT22;47572;0.00000000;0.00000000;2022-10-28T13:58:48;19.60;79.20
61672;DHT22;47572;0.00000000;0.00000000;2022-10-28T14:03:58;19.60;79.30
61672;DHT22;47572;0.00000000;0.00000000;2022-10-28T14:06:28;19.60;79.40
61672;DHT22;47572;0.00000000;0.00000000;2022-10-28T14:08:55;19.60;79.40
61672;DHT22;47572;0.00000000;0.00000000;2022-10-28T14:11:22;19.60;79.40
61672;DHT22;47572;0.00000000;0.00000000;2022-10-28T14:13:49;19.60;79.40
61672;DHT22;47572;0.00000000;0.00000000;2022-10-28T14:18:50;19.60;79.10
61672;DHT22;47572;0.00000000;0.00000000;2022-10-28T14:21:16;19.60;78.90
61672;DHT22;47572;0.00000000;0.00000000;2022-10-28T14:26:07;19.60;79.00
61672;DHT22;47572;0.00000000;0.00000000;2022-10-28T14:33:35;19.50;78.90
61672;DHT22;47572;0.00000000;0.00000000;2022-10-28T14:36:06;19.60;79.00
61672;DHT22;47572;0.00000000;0.00000000;2022-10-28T14:46:37;19.50;79.00
61672;DHT22;47572;0.00000000;0.00000000;2022-10-28T14:49:13;19.50;79.10
61672;DHT22;47572;0.00000000;0.00000000;2022-10-28T14:51:41;19.50;79.20
61672;DHT22;47572;0.00000000;0.00000000;2022-10-28T14:54:15;19.50;79.00
61672;DHT22;47572;0.00000000;0.00000000;2022-10-28T14:56:42;19.50;79.10
61672;DHT22;47572;0.00000000;0.00000000;2022-10-28T15:04:23;19.50;79.00
61672;DHT22;47572;0.00000000;0.00000000;2022-10-28T15:06:49;19.50;79.20
61672;DHT22;47572;0.00000000;0.00000000;2022-10-28T15:11:42;19.50;79.20
61672;DHT22;47572;0.00000000;0.00000000;2022-10-28T15:14:23;19.50;79.20
61672;DHT22;47572;0.00000000;0.00000000;2022-10-28T15:16:50;19.50;79.20
61672;DHT22;47572;0.00000000;0.00000000;2022-10-28T15:19:17;19.50;79.30
61672;DHT22;47572;0.00000000;0.00000000;2022-10-28T15:21:43;19.50;79.20
61672;DHT22;47572;0.00000000;0.00000000;2022-10-28T15:24:12;19.50;80.00
61672;DHT22;47572;0.00000000;0.00000000;2022-10-28T15:26:38;19.50;79.20
61672;DHT22;47572;0.00000000;0.00000000;2022-10-28T15:29:04;19.50;79.20
61672;DHT22;47572;0.00000000;0.00000000;2022-10-28T15:31:29;19.50;79.30
61672;DHT22;47572;0.00000000;0.00000000;2022-10-28T15:33:55;19.40;79.40
61672;DHT22;47572;0.00000000;0.00000000;2022-10-28T15:36:22;19.40;79.10
61672;DHT22;47572;0.00000000;0.00000000;2022-10-28T15:43:53;19.40;79.50
61672;DHT22;47572;0.00000000;0.00000000;2022-10-28T15:46:19;19.40;79.50
61672;DHT22;47572;0.00000000;0.00000000;2022-10-28T15:48:44;19.40;79.50
61672;DHT22;47572;0.00000000;0.00000000;2022-10-28T15:51:16;19.40;79.60
61672;DHT22;47572;0.00000000;0.00000000;2022-10-28T15:53:42;19.40;79.50
61672;DHT22;47572;0.00000000;0.00000000;2022-10-28T15:56:15;19.50;79.70
61672;DHT22;47572;0.00000000;0.00000000;2022-10-28T15:58:42;19.40;79.70
61672;DHT22;47572;0.00000000;0.00000000;2022-10-28T16:03:52;19.50;79.70
61672;DHT22;47572;0.00000000;0.00000000;2022-10-28T16:06:22;19.50;79.80
61672;DHT22;47572;0.00000000;0.00000000;2022-10-28T16:11:45;19.50;79.70
61672;DHT22;47572;0.00000000;0.00000000;2022-10-28T16:14:31;19.50;79.70
61672;DHT22;47572;0.00000000;0.00000000;2022-10-28T16:19:30;19.50;79.60
61672;DHT22;47572;0.00000000;0.00000000;2022-10-28T16:21:57;19.50;79.60
61672;DHT22;47572;0.00000000;0.00000000;2022-10-28T16:24:23;19.50;79.70